Latest Weather Observations for Penrith

IDN60801

Issued at 7:35 pm EST Thursday 17 April 2014 (issued every 30 minutes, with the page automatically refreshed every 10 minutes)

About weather observations | Map of weather stations | Latest weather observations for NSW | Other Formats
Station Details ID: 067113 Name: PENRITH LAKES AWS Lat: -33.72 Lon: 150.68 Height: 24.7 m
Data from the previous 72 hours. | See also: Recent months at Penrith
Date/Time
EST
Temp
°C
App
Temp
°C
Dew
Point
Rel
Hum
%
Delta-T
°C
Wind Press
QNH
hPa
Press
MSL
hPa
Rain
since 9 am
mm
Dir
 
Spd
km/h
Gust
km/h
Spd
kts
Gust
kts
17/07:30pm 17.3 17.4 13.8 80 2.0 S 6 7 3 4 - - 0.0
17/07:00pm 17.7 17.9 13.2 75 2.5 SSE 4 7 2 4 - - 0.0
17/06:30pm 18.4 18.6 13.1 71 3.0 SSE 4 7 2 4 - - 0.0
17/06:00pm 19.1 18.0 12.1 64 3.9 SSE 9 13 5 7 - - 0.0
17/05:30pm 20.2 18.1 11.1 56 5.0 SE 13 19 7 10 - - 0.0
17/05:00pm 21.1 18.9 10.9 52 5.6 ESE 13 20 7 11 - - 0.0
17/04:30pm 22.5 20.2 9.0 42 7.2 SE 11 15 6 8 - - 0.0
17/04:00pm 23.1 20.7 8.8 40 7.6 SSE 11 15 6 8 - - 0.0
17/03:30pm 23.7 21.8 8.9 39 8.0 SSE 9 15 5 8 - - 0.0
17/03:00pm 23.6 21.4 9.2 40 7.8 SSE 11 19 6 10 - - 0.0
17/02:30pm 23.8 22.0 9.4 40 7.8 SSE 9 17 5 9 - - 0.0
17/02:00pm 23.9 21.5 9.9 41 7.7 SSW 13 22 7 12 - - 0.0
17/01:30pm 23.7 20.4 8.2 37 8.2 S 15 26 8 14 - - 0.0
17/01:00pm 23.4 20.5 9.8 42 7.4 SSE 15 20 8 11 - - 0.0
17/12:30pm 22.9 20.6 10.3 45 6.9 S 13 22 7 12 - - 0.0
17/12:00pm 22.6 21.1 10.4 46 6.7 SSE 9 20 5 11 - - 0.0
17/11:30am 22.5 20.6 10.6 47 6.5 S 11 17 6 9 - - 0.0
17/11:00am 21.9 20.2 9.8 46 6.5 S 9 15 5 8 - - 0.0
17/10:30am 21.6 18.6 9.2 45 6.6 S 15 20 8 11 - - 0.0
17/10:00am 21.4 20.2 11.7 54 5.4 SSW 9 17 5 9 - - 0.0
17/09:30am 20.1 20.4 13.3 65 3.9 SSE 4 6 2 3 - - 0.0
17/09:00am 19.1 19.9 13.7 71 3.1 SE 2 6 1 3 - - 0.0
17/08:30am 17.6 18.1 12.7 73 2.7 S 2 4 1 2 - - 0.0
17/08:00am 16.4 16.9 12.8 79 2.0 SSE 2 4 1 2 - - 0.0
17/07:30am 15.1 14.9 13.0 87 1.2 SE 6 7 3 4 - - 0.0
17/07:00am 13.6 13.7 12.8 95 0.4 SSE 4 7 2 4 - - 0.0
17/06:30am 12.6 12.1 12.1 97 0.3 ESE 6 7 3 4 - - 0.0
17/06:00am 13.0 12.6 12.4 96 0.3 ESE 6 7 3 4 - - 0.0
17/05:30am 12.9 12.9 12.4 97 0.3 SE 4 7 2 4 - - 0.0
17/05:00am 13.2 13.3 12.7 97 0.3 SE 4 6 2 3 - - 0.0
17/04:30am 13.6 14.1 12.7 94 0.5 SSE 2 6 1 3 - - 0.0
17/04:00am 13.6 14.2 13.0 96 0.3 E 2 4 1 2 - - 0.0
17/03:30am 13.9 14.0 12.8 93 0.6 SSW 4 7 2 4 - - 0.0
17/03:00am 13.0 12.6 12.5 97 0.3 SE 6 7 3 4 - - 0.0
17/02:30am 13.4 14.3 12.9 97 0.3 CALM 0 0 0 0 - - 0.0
17/02:00am 13.7 14.6 12.9 95 0.4 CALM 0 0 0 0 - - 0.0
17/01:30am 14.0 14.5 12.7 92 0.7 SSE 2 4 1 2 - - 0.0
17/01:00am 14.2 14.4 12.9 92 0.7 SE 4 4 2 2 - - 0.0
17/12:30am 13.7 14.3 13.1 96 0.3 SSE 2 6 1 3 - - 0.0
17/12:00am 14.1 14.2 12.8 92 0.7 S 4 6 2 3 - - 0.0
 
Date/Time
EST
Temp
°C
App
Temp
°C
Dew
Point
Rel
Hum
%
Delta-T
°C
Wind Press
QNH
hPa
Press
MSL
hPa
Rain
since 9 am
mm
Dir
 
Spd
km/h
Gust
km/h
Spd
kts
Gust
kts
16/11:30pm 14.1 14.9 12.7 91 0.8 CALM 0 0 0 0 - - 0.0
16/11:00pm 14.9 15.5 13.1 89 1.0 SW 2 4 1 2 - - 0.0
16/10:30pm 14.7 15.1 12.6 87 1.1 S 2 6 1 3 - - 0.0
16/10:00pm 15.6 15.3 12.7 83 1.6 SSW 6 7 3 4 - - 0.0
16/09:30pm 15.9 15.5 13.0 83 1.6 SW 7 9 4 5 - - 0.0
16/09:00pm 15.6 15.3 12.7 83 1.6 SSW 6 7 3 4 - - 0.0
16/08:30pm 16.4 16.1 12.6 78 2.1 SSW 6 9 3 5 - - 0.0
16/08:00pm 16.5 16.2 13.2 81 1.8 SW 7 11 4 6 - - 0.0
16/07:30pm 16.6 16.5 13.3 81 1.9 WSW 6 7 3 4 - - 0.0
16/07:00pm 17.4 17.8 12.5 73 2.7 S 2 6 1 3 - - 0.0
16/06:30pm 18.2 17.8 12.4 69 3.2 SSE 6 11 3 6 - - 0.0
16/06:00pm 19.1 18.1 12.4 65 3.7 SSE 9 15 5 8 - - 0.0
16/05:30pm 19.9 19.3 12.4 62 4.2 SE 7 9 4 5 - - 0.0
16/05:00pm 20.6 19.5 11.8 57 4.9 SSE 9 13 5 7 - - 0.0
16/04:30pm 21.4 20.4 12.3 56 5.1 ESE 9 13 5 7 - - 0.0
16/04:00pm 21.4 20.7 12.0 55 5.3 S 7 9 4 5 - - 0.0
16/03:30pm 23.0 22.4 12.3 51 6.1 SSE 7 17 4 9 - - 0.0
16/03:00pm 22.9 21.8 10.7 46 6.7 SSE 7 15 4 8 - - 0.0
16/02:30pm 22.9 22.3 11.6 49 6.3 S 6 13 3 7 - - 0.0
16/02:00pm 22.6 21.7 12.5 53 5.8 SW 9 13 5 7 - - 0.0
16/01:30pm 21.7 21.2 12.8 57 5.1 SSW 7 13 4 7 - - 0.0
16/01:00pm 21.0 19.6 12.2 57 4.9 S 11 19 6 10 - - 0.0
16/12:30pm 22.9 22.7 13.7 56 5.4 S 7 20 4 11 - - 0.0
16/12:00pm 22.0 21.2 12.8 56 5.3 S 9 19 5 10 - - 0.0
16/11:30am 21.7 20.1 12.8 57 5.1 S 13 20 7 11 - - 0.0
16/11:00am 20.6 19.3 12.6 60 4.5 SSW 11 20 6 11 - - 0.0
16/10:30am 20.4 18.7 12.6 61 4.4 SSW 13 22 7 12 - - 0.0
16/10:00am 19.7 17.5 12.2 62 4.2 SSW 15 24 8 13 - - 0.0
16/09:30am 19.2 17.5 12.5 65 3.8 SSW 13 24 7 13 - - 0.0
16/09:00am 18.9 16.6 11.9 64 3.9 SSW 15 24 8 13 - - 0.0
16/08:30am 18.4 16.1 11.9 66 3.6 SW 15 20 8 11 - - 0.0
16/08:00am 17.7 16.1 11.5 67 3.4 SSW 11 17 6 9 - - 0.0
16/07:30am 17.1 15.5 11.4 69 3.1 SSW 11 17 6 9 - - 0.0
16/07:00am 17.0 14.6 11.3 69 3.1 SW 15 24 8 13 - - 0.0
16/06:30am 16.8 14.7 11.1 69 3.1 SW 13 19 7 10 - - 0.0
16/06:00am 16.7 15.0 11.2 70 3.0 SSW 11 15 6 8 - - 0.0
16/05:30am 16.8 14.7 11.1 69 3.1 SW 13 20 7 11 - - 0.0
16/05:00am 16.8 14.4 11.3 70 3.0 SSW 15 20 8 11 - - 0.0
16/04:30am 16.8 15.1 11.3 70 3.0 SSW 11 17 6 9 - - 0.0
16/04:00am 16.8 14.4 11.3 70 3.0 SSW 15 20 8 11 - - 0.0
16/03:30am 16.6 14.5 11.3 71 2.9 SSW 13 20 7 11 - - 0.0
16/03:00am 16.7 15.1 11.4 71 2.9 SW 11 20 6 11 - - 0.0
16/02:30am 16.9 14.9 11.4 70 3.0 SW 13 17 7 9 - - 0.0
16/02:00am 17.0 15.0 11.5 70 3.0 SSW 13 20 7 11 - - 0.0
16/01:30am 17.0 15.4 11.5 70 3.0 SSW 11 15 6 8 - - 0.0
16/01:00am 17.7 15.8 11.7 68 3.3 SW 13 19 7 10 - - 0.0
16/12:30am 17.9 16.0 11.7 67 3.4 SSW 13 19 7 10 - - 0.0
16/12:00am 17.7 16.7 12.2 70 3.0 SSW 9 17 5 9 - - 0.0
 
Date/Time
EST
Temp
°C
App
Temp
°C
Dew
Point
Rel
Hum
%
Delta-T
°C
Wind Press
QNH
hPa
Press
MSL
hPa
Rain
since 9 am
mm
Dir
 
Spd
km/h
Gust
km/h
Spd
kts
Gust
kts
15/11:30pm 17.3 16.9 13.0 76 2.4 SSW 7 11 4 6 - - 0.0
15/11:00pm 17.0 17.1 13.9 82 1.8 S 6 9 3 5 - - 0.0
15/10:30pm 16.9 17.1 14.2 84 1.5 SSW 6 9 3 5 - - 0.0
15/10:00pm 17.1 16.0 14.2 83 1.7 S 13 20 7 11 - - 0.0
15/09:30pm 16.7 16.4 14.5 87 1.3 SSW 9 15 5 8 - - 0.0
15/09:00pm 17.5 17.5 14.2 81 1.9 SSE 7 11 4 6 - - 0.0
15/08:30pm 18.1 18.1 13.6 75 2.6 S 6 9 3 5 - - 0.0
15/08:00pm 18.2 17.6 13.5 74 2.7 S 9 15 5 8 - - 0.0
15/07:30pm 18.5 16.7 13.4 72 2.9 S 15 22 8 12 - - 0.0
15/07:00pm 18.6 17.8 13.9 74 2.7 S 11 20 6 11 - - 0.0
15/06:30pm 18.8 17.5 13.6 72 3.0 S 13 22 7 12 - - 0.0
15/06:00pm 19.4 17.4 14.0 71 3.1 SSE 17 24 9 13 - - 0.0
15/05:30pm 19.7 18.2 14.1 70 3.2 SE 15 19 8 10 - - 0.0
15/05:00pm 20.4 18.5 13.1 63 4.2 SE 15 22 8 12 - - 0.0
15/04:30pm 21.2 20.8 11.2 53 5.5 S 4 6 2 3 - - 0.0
15/04:00pm 21.4 21.0 11.1 52 5.7 S 4 6 2 3 - - 0.0
15/03:30pm 21.6 20.7 11.3 52 5.7 S 7 9 4 5 - - 0.0
15/03:00pm 21.9 20.6 10.1 47 6.4 S 7 11 4 6 - - 0.0
15/02:30pm 22.2 21.3 11.3 50 6.1 SSW 7 11 4 6 - - 0.0
15/02:00pm 21.9 20.4 10.4 48 6.3 S 9 15 5 8 - - 0.0
15/01:30pm 21.9 20.7 10.4 48 6.3 SSE 7 13 4 7 - - 0.0
15/01:00pm 22.5 21.9 10.3 46 6.7 SW 4 7 2 4 - - 0.0
15/12:30pm 21.9 21.0 11.3 51 5.9 SSW 7 11 4 6 - - 0.0
15/12:00pm 21.7 20.6 10.8 50 6.0 SSE 7 15 4 8 - - 0.0
15/11:30am 21.2 20.1 10.1 49 6.0 SSE 6 11 3 6 - - 0.0
15/11:00am 21.4 20.3 10.6 50 5.9 S 7 9 4 5 - - 0.0
15/10:30am 21.3 20.2 10.5 50 5.9 S 7 15 4 8 - - 0.0
15/10:00am 20.7 19.3 9.6 49 5.9 S 7 11 4 6 - - 0.0
15/09:30am 20.1 19.2 10.5 54 5.2 SW 6 13 3 7 - - 0.0
15/09:00am 19.1 17.7 10.9 59 4.5 SSW 9 13 5 7 - - 61.8
15/08:30am 18.0 17.4 11.6 66 3.5 S 6 11 3 6 - - 61.8
15/08:00am 16.9 16.3 11.6 71 2.9 S 6 9 3 5 - - 61.8
15/07:30am 16.3 15.8 11.9 75 2.4 S 6 9 3 5 - - 61.8
15/07:00am 15.0 14.3 12.1 83 1.6 S 7 9 4 5 - - 61.8
15/06:30am 14.2 13.5 12.1 87 1.1 S 7 11 4 6 - - 61.8
15/06:00am 14.4 13.7 12.1 86 1.2 S 7 13 4 7 - - 61.8
15/05:30am 14.6 13.9 11.9 84 1.5 S 7 11 4 6 - - 61.8
15/05:00am 14.7 13.6 12.0 84 1.5 S 9 13 5 7 - - 61.8
15/04:30am 14.4 13.7 12.1 86 1.2 S 7 11 4 6 - - 61.8
15/04:00am 14.3 13.7 11.8 85 1.3 S 6 7 3 4 - - 61.8
15/03:30am 14.3 14.0 11.5 83 1.5 SSW 4 6 2 3 - - 61.8
15/03:00am 15.0 14.6 11.2 78 2.0 SSW 4 7 2 4 - - 61.8
15/02:30am 15.6 14.7 11.4 76 2.3 SSW 7 11 4 6 - - 61.8
15/02:00am 16.1 14.8 11.1 72 2.7 SSW 9 11 5 6 - - 61.8
15/01:30am 16.3 15.0 11.2 72 2.7 SSW 9 13 5 7 - - 61.8
15/01:00am 16.5 15.1 11.0 70 3.0 S 9 17 5 9 - - 61.8
15/12:30am 17.0 15.7 11.1 68 3.2 S 9 15 5 8 - - 61.8
15/12:00am 17.8 15.7 11.1 65 3.6 SW 13 19 7 10 - - 61.8
 
Date/Time
EST
Temp
°C
App
Temp
°C
Dew
Point
Rel
Hum
%
Delta-T
°C
Wind Press
QNH
hPa
Press
MSL
hPa
Rain
since 9 am
mm
Dir
 
Spd
km/h
Gust
km/h
Spd
kts
Gust
kts
14/11:30pm 17.8 16.2 11.4 66 3.5 SSW 11 19 6 10 - - 61.8
14/11:00pm 17.4 16.5 11.4 68 3.3 SSW 7 11 4 6 - - 61.8
14/10:30pm 17.7 16.5 11.5 67 3.4 SSW 9 13 5 7 - - 61.8
14/10:00pm 17.6 16.4 11.6 68 3.3 SSW 9 13 5 7 - - 61.8
14/09:30pm 17.4 16.8 12.3 72 2.8 SW 7 11 4 6 - - 61.8
14/09:00pm 17.4 16.9 12.5 73 2.7 SW 7 11 4 6 - - 61.8
14/08:30pm 16.8 16.5 12.7 77 2.3 SW 6 7 3 4 - - 61.8
14/08:00pm 17.4 16.8 13.5 78 2.2 SSW 9 15 5 8 - - 61.8

Other Formats:

Comma delimited format used in spreadsheet applications
http://www.bom.gov.au/fwo/IDN60801/IDN60801.94763.axf

JavaScript Object Notation format (JSON) in row-major order
http://www.bom.gov.au/fwo/IDN60801/IDN60801.94763.json